createdAt,value
2023-10-20T00:00:06.922Z,953.71
2023-10-20T00:01:06.938Z,953.72
2023-10-20T00:02:06.936Z,953.68
2023-10-20T00:03:06.921Z,953.63
2023-10-20T00:04:06.898Z,953.68
2023-10-20T00:05:06.881Z,953.66
2023-10-20T00:06:06.823Z,953.68
2023-10-20T00:07:06.806Z,953.70
2023-10-20T00:08:06.845Z,953.65
2023-10-20T00:09:06.797Z,953.67
2023-10-20T00:10:06.799Z,953.70
2023-10-20T00:11:06.843Z,953.63
2023-10-20T00:12:06.753Z,953.59
2023-10-20T00:13:06.749Z,953.52
2023-10-20T00:14:06.810Z,953.52
2023-10-20T00:15:06.704Z,953.44
2023-10-20T00:16:06.767Z,953.39
2023-10-20T00:17:06.711Z,953.31
2023-10-20T00:18:06.706Z,953.32
2023-10-20T00:19:06.661Z,953.34
2023-10-20T00:20:06.683Z,953.36
2023-10-20T00:21:06.622Z,953.32
2023-10-20T00:22:06.624Z,953.25
2023-10-20T00:23:06.668Z,953.27
2023-10-20T00:24:06.584Z,953.23
2023-10-20T00:25:06.593Z,953.13
2023-10-20T00:26:06.621Z,953.22
2023-10-20T00:27:06.588Z,953.22
2023-10-20T00:28:06.530Z,953.21
2023-10-20T00:29:06.570Z,953.19
2023-10-20T00:30:06.541Z,953.14
2023-10-20T00:31:06.556Z,953.21
2023-10-20T00:32:06.532Z,953.20
2023-10-20T00:33:06.510Z,953.29
2023-10-20T00:34:06.461Z,953.27
2023-10-20T00:35:06.463Z,953.24
2023-10-20T00:36:06.434Z,953.26
2023-10-20T00:37:06.441Z,953.26
2023-10-20T00:38:06.448Z,953.23
2023-10-20T00:39:06.413Z,953.30
2023-10-20T00:40:06.394Z,953.17
2023-10-20T00:41:06.400Z,953.11
2023-10-20T00:42:06.367Z,953.09
2023-10-20T00:43:06.347Z,953.01
2023-10-20T00:44:06.356Z,952.94
2023-10-20T00:45:06.335Z,952.92
2023-10-20T00:46:06.406Z,952.91
2023-10-20T00:47:06.339Z,952.90
2023-10-20T00:48:06.336Z,952.97
2023-10-20T00:49:06.385Z,952.96
2023-10-20T00:50:06.432Z,952.87
2023-10-20T00:51:06.238Z,952.83
2023-10-20T00:52:06.222Z,952.74
2023-10-20T00:53:06.306Z,952.73
2023-10-20T00:54:06.221Z,952.71
2023-10-20T00:55:06.216Z,952.74
2023-10-20T00:56:06.286Z,952.80
2023-10-20T00:57:06.190Z,952.83
2023-10-20T00:58:06.147Z,952.83
2023-10-20T00:59:06.157Z,952.85
2023-10-20T01:00:06.136Z,952.84
2023-10-20T01:01:06.130Z,952.84
2023-10-20T01:02:06.222Z,952.78
2023-10-20T01:03:06.353Z,952.82
2023-10-20T01:04:06.110Z,952.83
2023-10-20T01:05:06.080Z,952.79
2023-10-20T01:06:06.060Z,952.80
2023-10-20T01:07:06.028Z,952.79
2023-10-20T01:08:06.034Z,952.89
2023-10-20T01:09:06.069Z,952.89
2023-10-20T01:10:05.998Z,952.90
2023-10-20T01:11:06.039Z,952.82
2023-10-20T01:12:05.951Z,952.85
2023-10-20T01:13:05.981Z,952.73
2023-10-20T01:14:05.987Z,952.71
2023-10-20T01:15:05.927Z,952.72
2023-10-20T01:16:05.975Z,952.77
2023-10-20T01:17:06.029Z,952.80
2023-10-20T01:18:05.889Z,952.75
2023-10-20T01:19:05.933Z,952.77
2023-10-20T01:20:05.901Z,952.75
2023-10-20T01:21:05.844Z,952.79
2023-10-20T01:22:05.839Z,952.80
2023-10-20T01:23:05.896Z,952.74
2023-10-20T01:24:05.801Z,952.70
2023-10-20T01:25:05.824Z,952.69
2023-10-20T01:26:05.794Z,952.72
2023-10-20T01:27:05.756Z,952.70
2023-10-20T01:28:05.756Z,952.73
2023-10-20T01:29:05.812Z,952.73
2023-10-20T01:30:05.747Z,952.78
2023-10-20T01:31:05.703Z,952.70
2023-10-20T01:32:05.742Z,952.71
2023-10-20T01:33:05.723Z,952.71
2023-10-20T01:34:05.709Z,952.69
2023-10-20T01:35:05.712Z,952.83
2023-10-20T01:36:05.668Z,952.81
2023-10-20T01:37:05.648Z,952.80
2023-10-20T01:38:05.660Z,952.83
2023-10-20T01:39:05.614Z,952.81
2023-10-20T01:40:05.597Z,952.67
2023-10-20T01:41:05.630Z,952.68
2023-10-20T01:42:05.575Z,952.70
2023-10-20T01:43:05.562Z,952.66
2023-10-20T01:44:05.578Z,952.66
2023-10-20T01:45:05.539Z,952.62
2023-10-20T01:46:05.546Z,952.62
2023-10-20T01:47:05.606Z,952.62
2023-10-20T01:48:05.586Z,952.65
2023-10-20T01:49:05.490Z,952.57
2023-10-20T01:50:05.526Z,952.59
2023-10-20T01:51:05.461Z,952.59
2023-10-20T01:52:05.442Z,952.49
2023-10-20T01:53:05.558Z,952.50
2023-10-20T01:54:05.441Z,952.45
2023-10-20T01:55:05.443Z,952.48
2023-10-20T01:56:05.448Z,952.38
2023-10-20T01:57:05.365Z,952.37
2023-10-20T01:58:05.378Z,952.37
2023-10-20T01:59:05.376Z,952.37
2023-10-20T02:00:05.346Z,952.34
2023-10-20T02:01:05.400Z,952.38
2023-10-20T02:02:05.489Z,952.43
2023-10-20T02:03:05.539Z,952.39
2023-10-20T02:04:05.335Z,952.36
2023-10-20T02:05:05.310Z,952.37
2023-10-20T02:06:05.274Z,952.32
2023-10-20T02:07:05.246Z,952.37
2023-10-20T02:08:05.254Z,952.32
2023-10-20T02:09:05.216Z,952.26
2023-10-20T02:10:05.221Z,952.23
2023-10-20T02:11:05.239Z,952.25
2023-10-20T02:12:05.158Z,952.18
2023-10-20T02:13:05.157Z,952.16
2023-10-20T02:14:05.180Z,952.17
2023-10-20T02:15:05.149Z,952.22
2023-10-20T02:16:05.138Z,952.10
2023-10-20T02:17:05.223Z,952.15
2023-10-20T02:18:05.210Z,952.15
2023-10-20T02:19:05.100Z,952.14
2023-10-20T02:20:05.154Z,952.07
2023-10-20T02:21:05.079Z,952.06
2023-10-20T02:22:05.040Z,952.04
2023-10-20T02:23:05.074Z,952.01
2023-10-20T02:24:05.040Z,952.02
2023-10-20T02:25:05.008Z,952.01
2023-10-20T02:26:05.030Z,951.95
2023-10-20T02:27:04.984Z,951.92
2023-10-20T02:28:04.983Z,951.93
2023-10-20T02:29:05.002Z,951.93
2023-10-20T02:30:04.960Z,951.89
2023-10-20T02:31:04.986Z,951.83
2023-10-20T02:32:04.943Z,951.86
2023-10-20T02:33:04.949Z,951.85
2023-10-20T02:34:04.868Z,951.81
2023-10-20T02:35:04.880Z,951.81
2023-10-20T02:36:04.854Z,951.87
2023-10-20T02:37:04.840Z,951.83
2023-10-20T02:38:04.879Z,951.85
2023-10-20T02:39:04.861Z,951.90
2023-10-20T02:40:04.813Z,951.84
2023-10-20T02:41:04.872Z,951.84
2023-10-20T02:42:04.815Z,951.79
2023-10-20T02:43:04.794Z,951.80
2023-10-20T02:44:04.815Z,951.81
2023-10-20T02:45:04.753Z,951.76
2023-10-20T02:46:04.739Z,951.72
2023-10-20T02:47:04.885Z,951.68
2023-10-20T02:48:04.714Z,951.67
2023-10-20T02:49:04.734Z,951.64
2023-10-20T02:50:04.722Z,951.64
2023-10-20T02:51:04.690Z,951.65
2023-10-20T02:52:04.648Z,951.61
2023-10-20T02:53:04.678Z,951.61
2023-10-20T02:54:04.631Z,951.55
2023-10-20T02:55:04.620Z,951.65
2023-10-20T02:56:04.653Z,951.63
2023-10-20T02:57:04.605Z,951.60
2023-10-20T02:58:04.576Z,951.63
2023-10-20T02:59:04.576Z,951.61
2023-10-20T03:00:04.554Z,951.65
2023-10-20T03:01:04.571Z,951.58
2023-10-20T03:02:04.721Z,951.55
2023-10-20T03:03:04.687Z,951.56
2023-10-20T03:04:04.756Z,951.54
2023-10-20T03:05:04.576Z,951.52
2023-10-20T03:06:04.523Z,951.46
2023-10-20T03:07:04.469Z,951.49
2023-10-20T03:08:04.540Z,951.47
2023-10-20T03:09:04.464Z,951.42
2023-10-20T03:10:04.421Z,951.37
2023-10-20T03:11:04.451Z,951.26
2023-10-20T03:12:04.383Z,951.19
2023-10-20T03:13:04.381Z,951.26
2023-10-20T03:14:04.386Z,951.25
2023-10-20T03:15:04.389Z,951.25
2023-10-20T03:16:04.335Z,951.26
2023-10-20T03:17:04.362Z,951.27
2023-10-20T03:18:04.343Z,951.25
2023-10-20T03:19:04.326Z,951.24
2023-10-20T03:20:04.328Z,951.21
2023-10-20T03:21:04.313Z,951.06
2023-10-20T03:22:04.266Z,951.06
2023-10-20T03:23:04.254Z,951.09
2023-10-20T03:24:04.243Z,951.01
2023-10-20T03:25:04.236Z,951.03
2023-10-20T03:26:04.432Z,950.96
2023-10-20T03:27:04.263Z,950.96
2023-10-20T03:28:04.192Z,950.89
2023-10-20T03:29:04.192Z,950.91
2023-10-20T03:30:04.172Z,950.93
2023-10-20T03:31:04.323Z,950.83
2023-10-20T03:32:04.165Z,950.82
2023-10-20T03:33:04.195Z,950.76
2023-10-20T03:34:04.126Z,950.75
2023-10-20T03:35:04.123Z,950.70
2023-10-20T03:36:04.109Z,950.69
2023-10-20T03:37:04.083Z,950.64
2023-10-20T03:38:04.074Z,950.67
2023-10-20T03:39:04.027Z,950.61
2023-10-20T03:40:04.050Z,950.53
2023-10-20T03:41:04.078Z,950.46
2023-10-20T03:42:04.020Z,950.45
2023-10-20T03:43:03.981Z,950.41
2023-10-20T03:44:03.993Z,950.43
2023-10-20T03:45:03.949Z,950.41
2023-10-20T03:46:03.966Z,950.37
2023-10-20T03:47:03.949Z,950.29
2023-10-20T03:48:03.965Z,950.24
2023-10-20T03:49:03.896Z,950.19
2023-10-20T04:03:36.491Z,950.13
2023-10-20T04:04:36.460Z,950.17
2023-10-20T04:05:36.398Z,950.19
2023-10-20T04:06:36.377Z,950.22
2023-10-20T04:07:36.374Z,950.25
2023-10-20T04:08:36.388Z,950.28
2023-10-20T04:09:36.322Z,950.30
2023-10-20T04:10:36.314Z,950.36
2023-10-20T04:11:36.319Z,950.37
2023-10-20T04:12:36.295Z,950.29
2023-10-20T04:13:36.269Z,950.34
2023-10-20T04:14:36.456Z,950.35
2023-10-20T04:15:36.246Z,950.37
2023-10-20T04:16:36.288Z,950.37
2023-10-20T04:17:36.274Z,950.42
2023-10-20T04:18:36.270Z,950.38
2023-10-20T04:19:36.485Z,950.37
2023-10-20T04:20:36.233Z,950.32
2023-10-20T04:21:36.168Z,950.26
2023-10-20T04:22:36.169Z,950.19
2023-10-20T04:23:36.196Z,950.08
2023-10-20T04:24:36.151Z,950.06
2023-10-20T04:25:36.123Z,949.96
2023-10-20T04:26:36.131Z,949.99
2023-10-20T04:27:36.098Z,949.96
2023-10-20T04:28:36.104Z,949.90
2023-10-20T04:29:36.148Z,949.94
2023-10-20T04:30:36.048Z,949.92
2023-10-20T04:31:38.840Z,949.91
2023-10-20T04:32:36.064Z,949.92
2023-10-20T04:33:36.051Z,949.88
2023-10-20T04:34:36.023Z,949.90
2023-10-20T04:35:36.045Z,949.96
2023-10-20T04:36:35.983Z,949.92
2023-10-20T04:37:35.992Z,949.87
2023-10-20T04:38:35.997Z,949.82
2023-10-20T04:39:35.962Z,949.81
2023-10-20T04:40:35.982Z,949.75
2023-10-20T04:41:35.994Z,949.70
2023-10-20T04:42:35.909Z,949.67
2023-10-20T04:43:35.893Z,949.62
2023-10-20T04:44:35.950Z,949.62
2023-10-20T04:45:35.874Z,949.61
2023-10-20T04:46:35.841Z,949.51
2023-10-20T04:47:35.923Z,949.51
2023-10-20T04:48:35.821Z,949.49
2023-10-20T04:49:35.827Z,949.53
2023-10-20T04:50:35.892Z,949.59
2023-10-20T04:51:35.788Z,949.53
2023-10-20T04:52:35.781Z,949.51
2023-10-20T04:53:35.797Z,949.51
2023-10-20T04:54:35.729Z,949.59
2023-10-20T04:55:35.729Z,949.51
2023-10-20T04:56:35.829Z,949.49
2023-10-20T04:57:35.695Z,949.48
2023-10-20T04:58:35.689Z,949.42
2023-10-20T04:59:35.735Z,949.32
2023-10-20T05:00:35.663Z,949.36
2023-10-20T05:01:35.662Z,949.30
2023-10-20T05:02:35.785Z,949.32
2023-10-20T05:03:35.699Z,949.34
2023-10-20T05:04:35.714Z,949.21
2023-10-20T05:05:35.700Z,949.14
2023-10-20T05:06:35.566Z,949.14
2023-10-20T05:07:35.574Z,949.09
2023-10-20T05:08:35.598Z,949.05
2023-10-20T05:09:35.543Z,948.98
2023-10-20T05:10:35.516Z,948.96
2023-10-20T05:11:35.568Z,948.94
2023-10-20T05:12:35.505Z,948.92
2023-10-20T05:13:35.487Z,948.89
2023-10-20T05:14:35.800Z,948.84
2023-10-20T05:15:35.466Z,948.88
2023-10-20T05:16:35.542Z,948.90
2023-10-20T05:17:35.517Z,948.88
2023-10-20T05:18:35.465Z,948.86
2023-10-20T05:19:35.401Z,948.93
2023-10-20T05:20:35.425Z,948.84
2023-10-20T05:21:35.404Z,948.91
2023-10-20T05:22:35.379Z,948.94
2023-10-20T05:23:35.386Z,948.87
2023-10-20T05:24:35.580Z,948.87
2023-10-20T05:25:35.381Z,948.86
2023-10-20T05:26:35.304Z,948.91
2023-10-20T05:27:35.298Z,948.85
2023-10-20T05:28:35.307Z,948.82
2023-10-20T05:29:35.315Z,948.90
2023-10-20T05:30:35.275Z,948.79
2023-10-20T05:31:35.285Z,948.87
2023-10-20T05:32:35.328Z,948.81
2023-10-20T05:33:35.254Z,948.80
2023-10-20T05:34:35.487Z,948.83
2023-10-20T05:35:35.249Z,948.85
2023-10-20T05:36:35.203Z,948.82
2023-10-20T05:37:35.248Z,948.80
2023-10-20T05:38:35.297Z,948.70
2023-10-20T05:39:35.166Z,948.66
2023-10-20T05:40:35.145Z,948.67
2023-10-20T05:41:35.236Z,948.59
2023-10-20T05:42:35.162Z,948.57
2023-10-20T05:43:35.118Z,948.60
2023-10-20T05:44:35.392Z,948.63
2023-10-20T05:45:35.117Z,948.61
2023-10-20T05:46:35.081Z,948.55
2023-10-20T05:47:35.104Z,948.59
2023-10-20T05:48:35.211Z,948.60
2023-10-20T05:49:35.033Z,948.59
2023-10-20T05:50:35.133Z,948.56
2023-10-20T05:51:35.021Z,948.58
2023-10-20T05:52:34.998Z,948.59
2023-10-20T05:53:35.053Z,948.49
2023-10-20T05:54:35.141Z,948.44
2023-10-20T05:55:34.947Z,948.38
2023-10-20T05:56:34.994Z,948.35
2023-10-20T05:57:34.920Z,948.35
2023-10-20T05:58:34.936Z,948.38
2023-10-20T05:59:34.988Z,948.38
2023-10-20T06:00:45.992Z,948.30
2023-10-20T06:01:35.929Z,948.26
2023-10-20T06:02:34.940Z,948.19
2023-10-20T06:03:34.944Z,948.15
2023-10-20T06:04:35.112Z,948.10
2023-10-20T06:05:34.885Z,948.17
2023-10-20T06:06:34.865Z,948.15
2023-10-20T06:07:34.806Z,948.12
2023-10-20T06:08:35.021Z,948.12
2023-10-20T06:09:34.830Z,948.09
2023-10-20T06:10:34.778Z,948.16
2023-10-20T06:11:34.791Z,948.13
2023-10-20T06:12:34.768Z,948.16
2023-10-20T06:13:34.732Z,948.07
2023-10-20T06:14:34.872Z,948.10
2023-10-20T06:15:34.716Z,948.01
2023-10-20T06:16:34.740Z,947.99
2023-10-20T06:17:37.179Z,947.98
2023-10-20T06:18:36.428Z,948.00
2023-10-20T06:19:34.655Z,947.99
2023-10-20T06:20:34.707Z,947.92
2023-10-20T06:21:34.641Z,947.94
2023-10-20T06:22:34.628Z,947.89
2023-10-20T06:23:34.681Z,947.82
2023-10-20T06:24:34.800Z,947.78
2023-10-20T06:25:34.571Z,947.68
2023-10-20T06:26:34.673Z,947.70
2023-10-20T06:27:34.565Z,947.66
2023-10-20T06:28:34.569Z,947.63
2023-10-20T06:29:34.814Z,947.52
2023-10-20T06:30:34.516Z,947.59
2023-10-20T06:31:34.519Z,947.48
2023-10-20T06:32:34.573Z,947.40
2023-10-20T06:33:34.527Z,947.30
2023-10-20T06:34:34.439Z,947.23
2023-10-20T06:35:34.516Z,947.22
2023-10-20T06:36:34.426Z,947.22
2023-10-20T06:37:34.423Z,947.34
2023-10-20T06:38:34.474Z,947.39
2023-10-20T06:39:34.527Z,947.40
2023-10-20T06:40:34.382Z,947.30
2023-10-20T06:41:34.372Z,947.29
2023-10-20T06:42:34.359Z,947.32
2023-10-20T06:43:34.326Z,947.29
2023-10-20T06:44:34.382Z,947.23
2023-10-20T06:45:34.322Z,947.16
2023-10-20T06:46:34.295Z,947.14
2023-10-20T06:47:34.344Z,947.17
2023-10-20T06:48:34.287Z,947.07
2023-10-20T06:49:34.294Z,947.00
2023-10-20T06:50:34.280Z,946.98
2023-10-20T06:51:34.224Z,946.91
2023-10-20T06:52:34.221Z,946.84
2023-10-20T06:53:34.213Z,946.75
2023-10-20T06:54:34.418Z,946.63
2023-10-20T06:55:51.007Z,946.59
2023-10-20T06:56:35.202Z,946.57
2023-10-20T06:57:34.205Z,946.46
2023-10-20T06:58:34.153Z,946.37
2023-10-20T06:59:34.143Z,946.33
2023-10-20T07:00:34.114Z,946.31
2023-10-20T07:01:34.251Z,946.18
2023-10-20T07:02:34.192Z,946.15
2023-10-20T07:03:34.153Z,946.04
2023-10-20T07:04:34.194Z,946.06
2023-10-20T07:05:34.110Z,945.98
2023-10-20T07:06:34.055Z,945.97
2023-10-20T07:07:34.011Z,945.95
2023-10-20T07:08:34.063Z,945.92
2023-10-20T07:09:34.030Z,945.89
2023-10-20T07:10:33.976Z,945.85
2023-10-20T07:11:34.008Z,945.77
2023-10-20T07:12:33.961Z,945.77
2023-10-20T07:13:33.957Z,945.77
2023-10-20T07:14:34.180Z,945.71
2023-10-20T07:15:33.908Z,945.65
2023-10-20T07:16:33.979Z,945.66
2023-10-20T07:17:34.195Z,945.57
2023-10-20T07:18:33.929Z,945.56
2023-10-20T07:19:33.887Z,945.45
2023-10-20T07:20:33.913Z,945.49
2023-10-20T07:21:33.835Z,945.52
2023-10-20T07:22:33.872Z,945.55
2023-10-20T07:23:33.867Z,945.52
2023-10-20T07:24:34.048Z,945.51
2023-10-20T07:25:33.795Z,945.52
2023-10-20T07:26:33.900Z,945.54
2023-10-20T07:27:33.768Z,945.50
2023-10-20T07:28:33.781Z,945.59
2023-10-20T07:29:35.278Z,945.57
2023-10-20T07:30:33.744Z,945.55
2023-10-20T07:31:33.796Z,945.51
2023-10-20T07:32:33.855Z,945.45
2023-10-20T07:33:33.737Z,945.40
2023-10-20T07:34:33.732Z,945.35
2023-10-20T07:35:33.719Z,945.36
2023-10-20T07:36:33.649Z,945.43
2023-10-20T07:37:34.988Z,945.43
2023-10-20T07:38:33.722Z,945.46
2023-10-20T07:39:33.729Z,945.48
2023-10-20T07:40:33.610Z,945.45
2023-10-20T07:41:33.624Z,945.44
2023-10-20T07:42:33.563Z,945.45
2023-10-20T07:43:33.583Z,945.45
2023-10-20T07:44:33.895Z,945.36
2023-10-20T07:45:33.580Z,945.35
2023-10-20T07:46:33.532Z,945.28
2023-10-20T07:47:33.584Z,945.27
2023-10-20T07:48:33.644Z,945.30
2023-10-20T07:49:33.509Z,945.36
2023-10-20T07:50:33.553Z,945.34
2023-10-20T07:51:33.474Z,945.27
2023-10-20T07:52:33.441Z,945.25
2023-10-20T07:53:33.442Z,945.20
2023-10-20T07:54:33.576Z,945.16
2023-10-20T07:55:33.394Z,945.20
2023-10-20T07:56:33.414Z,945.13
2023-10-20T07:57:33.393Z,945.18
2023-10-20T07:58:33.358Z,945.18
2023-10-20T07:59:33.580Z,945.12
2023-10-20T08:00:33.341Z,945.06
2023-10-20T08:01:33.350Z,945.01
2023-10-20T08:02:33.435Z,945.03
2023-10-20T08:03:33.522Z,945.09
2023-10-20T08:04:33.522Z,945.12
2023-10-20T08:05:33.509Z,945.15
2023-10-20T08:06:33.652Z,945.23
2023-10-20T08:07:33.274Z,945.22
2023-10-20T08:08:33.290Z,945.20
2023-10-20T08:09:33.480Z,945.18
2023-10-20T08:10:33.198Z,945.13
2023-10-20T08:11:33.223Z,945.06
2023-10-20T08:12:33.186Z,944.94
2023-10-20T08:13:33.198Z,944.86
2023-10-20T08:14:33.229Z,944.86
2023-10-20T08:15:33.182Z,944.86
2023-10-20T08:16:33.186Z,944.93
2023-10-20T08:17:33.162Z,944.95
2023-10-20T08:18:33.138Z,945.05
2023-10-20T08:19:33.262Z,945.05
2023-10-20T08:20:33.071Z,945.09
2023-10-20T08:21:33.065Z,945.13
2023-10-20T08:22:33.046Z,945.05
2023-10-20T08:23:33.054Z,945.08
2023-10-20T08:24:33.046Z,944.98
2023-10-20T08:25:33.074Z,944.96
2023-10-20T08:26:33.151Z,944.98
2023-10-20T08:27:32.980Z,945.02
2023-10-20T08:28:32.965Z,945.08
2023-10-20T08:29:33.285Z,945.11
2023-10-20T08:30:32.977Z,945.02
2023-10-20T08:31:32.978Z,945.09
2023-10-20T08:32:33.014Z,945.10
2023-10-20T08:33:32.975Z,945.07
2023-10-20T08:34:32.924Z,945.13
2023-10-20T08:35:32.977Z,945.06
2023-10-20T08:36:32.894Z,945.06
2023-10-20T08:37:32.861Z,945.15
2023-10-20T08:38:32.888Z,945.09
2023-10-20T08:39:32.815Z,945.05
2023-10-20T08:40:36.761Z,945.11
2023-10-20T08:41:33.820Z,945.09
2023-10-20T08:42:32.794Z,944.98
2023-10-20T08:43:32.775Z,944.89
2023-10-20T08:44:32.814Z,944.93
2023-10-20T08:45:32.841Z,944.97
2023-10-20T08:46:32.765Z,944.88
2023-10-20T08:47:32.761Z,944.95
2023-10-20T08:48:32.756Z,944.93
2023-10-20T08:49:32.939Z,944.94
2023-10-20T08:50:32.731Z,944.96
2023-10-20T08:51:32.661Z,945.02
2023-10-20T08:52:32.665Z,944.88
2023-10-20T08:53:32.717Z,944.83
2023-10-20T08:54:32.632Z,944.86
2023-10-20T08:55:32.637Z,944.86
2023-10-20T08:56:32.601Z,944.80
2023-10-20T08:57:32.591Z,944.83
2023-10-20T08:58:32.581Z,944.82
2023-10-20T08:59:32.776Z,944.79
2023-10-20T09:00:35.296Z,944.90
2023-10-20T09:01:36.088Z,944.86
2023-10-20T09:02:32.566Z,944.80
2023-10-20T09:03:34.035Z,944.83
2023-10-20T09:04:32.927Z,944.78
2023-10-20T09:05:32.591Z,944.70
2023-10-20T09:06:32.501Z,944.81
2023-10-20T09:07:32.481Z,944.91
2023-10-20T09:08:35.255Z,944.93
2023-10-20T09:09:32.617Z,944.90
2023-10-20T09:10:32.466Z,944.92
2023-10-20T09:11:32.717Z,944.88
2023-10-20T09:12:32.411Z,944.82
2023-10-20T09:13:32.398Z,944.87
2023-10-20T09:14:32.425Z,944.81
2023-10-20T09:15:32.396Z,944.87
2023-10-20T09:16:32.366Z,944.78
2023-10-20T09:17:32.388Z,944.79
2023-10-20T09:18:32.576Z,944.88
2023-10-20T09:19:32.526Z,944.86
2023-10-20T09:20:32.398Z,944.90
2023-10-20T09:21:32.310Z,944.83
2023-10-20T09:22:32.284Z,944.85
2023-10-20T09:23:32.286Z,944.76
2023-10-20T09:24:32.265Z,944.87
2023-10-20T09:25:32.274Z,944.90
2023-10-20T09:26:32.293Z,944.87
2023-10-20T09:27:32.266Z,944.86
2023-10-20T09:28:32.254Z,944.83
2023-10-20T09:29:32.257Z,944.86
2023-10-20T09:30:32.181Z,944.84
2023-10-20T09:31:32.231Z,944.84
2023-10-20T09:32:32.199Z,944.79
2023-10-20T09:33:32.208Z,944.87
2023-10-20T09:34:32.155Z,944.87
2023-10-20T09:35:32.130Z,944.80
2023-10-20T09:36:32.110Z,944.79
2023-10-20T09:37:32.082Z,944.79
2023-10-20T09:38:32.152Z,944.68
2023-10-20T09:39:32.171Z,944.60
2023-10-20T09:40:32.060Z,944.67
2023-10-20T09:41:32.075Z,944.65
2023-10-20T09:42:32.330Z,944.65
2023-10-20T09:43:32.011Z,944.65
2023-10-20T09:44:32.135Z,944.73
2023-10-20T09:45:31.975Z,944.68
2023-10-20T09:46:32.014Z,944.74
2023-10-20T09:47:32.021Z,944.71
2023-10-20T10:03:42.852Z,944.41
2023-10-20T10:04:43.180Z,944.40
2023-10-20T10:05:45.121Z,944.39
2023-10-20T10:06:42.750Z,944.42
2023-10-20T10:07:42.729Z,944.45
2023-10-20T10:08:42.714Z,944.46
2023-10-20T10:09:42.697Z,944.45
2023-10-20T10:10:42.693Z,944.40
2023-10-20T10:11:42.786Z,944.33
2023-10-20T10:12:42.670Z,944.43
2023-10-20T10:13:43.509Z,944.45
2023-10-20T10:14:42.685Z,944.55
2023-10-20T10:15:42.621Z,944.64
2023-10-20T10:16:42.652Z,944.59
2023-10-20T10:17:51.393Z,944.61
2023-10-20T10:18:42.607Z,944.59
2023-10-20T10:19:42.558Z,944.64
2023-10-20T10:20:42.585Z,944.64
2023-10-20T10:21:42.567Z,944.69
2023-10-20T10:22:42.574Z,944.66
2023-10-20T10:23:42.516Z,944.74
2023-10-20T10:24:42.614Z,944.75
2023-10-20T10:25:42.496Z,944.65
2023-10-20T10:26:42.513Z,944.75
2023-10-20T10:27:42.606Z,944.76
2023-10-20T10:28:42.470Z,944.78
2023-10-20T10:29:42.440Z,944.73
2023-10-20T10:30:42.421Z,944.79
2023-10-20T10:31:47.781Z,944.70
2023-10-20T10:32:43.471Z,944.71
2023-10-20T10:33:42.547Z,944.68
2023-10-20T10:34:42.415Z,944.73
2023-10-20T10:35:42.400Z,944.76
2023-10-20T10:36:42.894Z,944.80
2023-10-20T10:37:42.360Z,944.87
2023-10-20T10:38:42.551Z,944.85
2023-10-20T10:39:42.373Z,944.89
2023-10-20T10:40:42.431Z,944.89
2023-10-20T10:41:42.331Z,945.00
2023-10-20T10:42:42.320Z,945.01
2023-10-20T10:43:42.260Z,945.02
2023-10-20T10:44:42.274Z,945.18
2023-10-20T10:45:42.230Z,945.17
2023-10-20T10:46:42.885Z,945.19
2023-10-20T10:47:45.038Z,945.20
2023-10-20T10:48:42.271Z,945.24
2023-10-20T10:49:42.183Z,945.28
2023-10-20T10:50:42.423Z,945.37
2023-10-20T10:51:42.289Z,945.34
2023-10-20T10:52:42.168Z,945.37
2023-10-20T10:53:42.181Z,945.35
2023-10-20T10:54:42.222Z,945.35
2023-10-20T10:55:42.186Z,945.47
2023-10-20T10:56:42.234Z,945.47
2023-10-20T10:57:42.129Z,945.54
2023-10-20T10:58:42.101Z,945.69
2023-10-20T10:59:42.148Z,945.77
2023-10-20T11:00:42.054Z,945.79
2023-10-20T11:01:42.030Z,945.82
2023-10-20T11:02:42.247Z,945.82
2023-10-20T11:03:42.132Z,945.77
2023-10-20T11:04:42.031Z,945.75
2023-10-20T11:05:42.024Z,945.84
2023-10-20T11:06:41.983Z,945.73
2023-10-20T11:07:42.630Z,945.68
2023-10-20T11:08:41.982Z,945.60
2023-10-20T11:09:41.924Z,945.62
2023-10-20T11:10:42.143Z,945.58
2023-10-20T11:11:42.206Z,945.59
2023-10-20T11:12:41.896Z,945.57
2023-10-20T11:13:41.925Z,945.51
2023-10-20T11:14:41.914Z,945.58
2023-10-20T11:15:41.847Z,945.68
2023-10-20T11:16:42.219Z,945.77
2023-10-20T11:17:41.855Z,945.71
2023-10-20T11:18:41.884Z,945.79
2023-10-20T11:19:41.811Z,945.84
2023-10-20T11:20:41.873Z,945.86
2023-10-20T11:21:41.799Z,945.91
2023-10-20T11:22:41.806Z,945.94
2023-10-20T11:23:41.817Z,946.02
2023-10-20T11:24:41.781Z,946.14
2023-10-20T11:25:41.968Z,946.10
2023-10-20T11:26:41.743Z,946.04
2023-10-20T11:27:41.708Z,946.10
2023-10-20T11:28:41.693Z,946.09
2023-10-20T11:29:57.655Z,946.00
2023-10-20T11:30:42.684Z,946.08
2023-10-20T11:31:41.640Z,946.12
2023-10-20T11:32:42.709Z,946.21
2023-10-20T11:33:43.738Z,946.17
2023-10-20T11:34:41.616Z,946.27
2023-10-20T11:35:41.611Z,946.36
2023-10-20T11:36:41.618Z,946.34
2023-10-20T11:37:41.581Z,946.39
2023-10-20T11:38:41.664Z,946.29
2023-10-20T11:39:41.548Z,946.32
2023-10-20T11:40:41.546Z,946.35
2023-10-20T11:41:41.602Z,946.41
2023-10-20T11:42:41.530Z,946.37
2023-10-20T11:43:41.526Z,946.34
2023-10-20T11:44:41.557Z,946.33
2023-10-20T11:45:41.537Z,946.18
2023-10-20T11:46:41.495Z,946.16
2023-10-20T11:47:41.494Z,946.16
2023-10-20T11:48:41.503Z,946.08
2023-10-20T11:49:41.433Z,946.13
2023-10-20T11:50:41.595Z,946.11
2023-10-20T11:51:41.447Z,946.16
2023-10-20T11:52:41.381Z,946.25
2023-10-20T11:53:41.439Z,946.29
2023-10-20T11:54:41.400Z,946.48
2023-10-20T11:55:41.525Z,946.57
2023-10-20T11:56:41.640Z,946.45
2023-10-20T11:57:41.500Z,946.46
2023-10-20T11:58:41.327Z,946.48
2023-10-20T11:59:41.489Z,946.37
2023-10-20T12:00:41.292Z,946.31
2023-10-20T12:01:41.306Z,946.23
2023-10-20T12:02:41.524Z,946.38
2023-10-20T12:03:41.583Z,946.40
2023-10-20T12:04:41.263Z,946.28
2023-10-20T12:05:41.434Z,946.28
2023-10-20T12:06:41.230Z,946.25
2023-10-20T12:07:41.214Z,946.28
2023-10-20T12:08:41.271Z,946.33
2023-10-20T12:09:41.206Z,946.23
2023-10-20T12:10:41.158Z,946.26
2023-10-20T12:11:41.213Z,946.23
2023-10-20T12:12:41.134Z,946.30
2023-10-20T12:13:41.422Z,946.26
2023-10-20T12:14:41.118Z,946.26
2023-10-20T12:15:41.182Z,946.36
2023-10-20T12:16:41.259Z,946.43
2023-10-20T12:17:41.225Z,946.38
2023-10-20T12:18:41.180Z,946.43
2023-10-20T12:19:41.028Z,946.54
2023-10-20T12:20:41.081Z,946.49
2023-10-20T12:21:42.877Z,946.42
2023-10-20T12:22:41.016Z,946.35
2023-10-20T12:23:41.080Z,946.41
2023-10-20T12:24:42.548Z,946.44
2023-10-20T12:25:41.142Z,946.38
2023-10-20T12:26:41.246Z,946.36
2023-10-20T12:27:41.174Z,946.39
2023-10-20T12:28:41.019Z,946.45
2023-10-20T12:29:41.046Z,946.47
2023-10-20T12:30:41.032Z,946.47
2023-10-20T12:31:40.952Z,946.48
2023-10-20T12:32:40.895Z,946.40
2023-10-20T12:33:41.126Z,946.44
2023-10-20T12:34:40.845Z,946.62
2023-10-20T12:35:40.906Z,946.69
2023-10-20T12:36:40.843Z,946.63
2023-10-20T12:37:40.851Z,946.60
2023-10-20T12:38:40.881Z,946.71
2023-10-20T12:39:41.639Z,946.77
2023-10-20T12:40:40.787Z,946.71
2023-10-20T12:41:40.802Z,946.71
2023-10-20T12:42:40.755Z,946.67
2023-10-20T12:43:41.250Z,946.63
2023-10-20T12:44:40.956Z,946.59
2023-10-20T12:45:40.990Z,946.58
2023-10-20T12:46:40.718Z,946.61
2023-10-20T12:47:40.738Z,946.65
2023-10-20T12:48:40.715Z,946.70
2023-10-20T12:49:40.677Z,946.65
2023-10-20T12:50:40.715Z,946.68
2023-10-20T12:51:40.669Z,946.69
2023-10-20T12:52:40.628Z,946.71
2023-10-20T12:53:40.656Z,946.69
2023-10-20T12:54:40.649Z,946.63
2023-10-20T12:55:40.614Z,946.68
2023-10-20T12:56:41.310Z,946.61